• Join FlightAware (Why Join?)
  • Login
  • US Flag 
06:20AM EST


 

Airport Tracker/Info


-or-


 

Live Flight TrackerFlight Track Log ✈ EGF2930 ✈ 08-Apr-2014 ✈ KDFW - KFWA

Flight Track Log - Related Links

Times and Time Zones

All times are in EDT time to prevent confusion due to time zone crossing. See the EGF2930 flight status page for this flight to view local times or setup timezone preferences in your user account.

Time Position Orientation Groundspeed Altitude Reporting Facility
EDT Latitude Longitude Course Direction KTS MPH feet Rate Location/Type
08:56PM 32.9167 -97.0333 52° Northeast 163 188 1,400  Level Dallas / Fort Worth TRACON
08:57PM 32.9500 -97.0333 360° North 194 223 3,000 2,220 Climbing Dallas / Fort Worth TRACON
08:58PM 32.7556 -96.9001 79° East  Level FlightAware Approximate
08:58PM 32.9944 -97.0278 North 192 221 5,100  Level Fort Worth Center
08:59PM 32.7872 -96.7839 53° Northeast  Level FlightAware Approximate
08:59PM 33.0247 -96.9581 63° Northeast 241 277 6,800  Level Fort Worth Center
09:00PM 32.8502 -96.6830 52° Northeast  Level FlightAware Approximate
09:00PM 33.0322 -96.8622 85° East 280 322 8,700  Level Fort Worth Center
09:01PM 32.9159 -96.5845 52° Northeast  Level FlightAware Approximate
09:01PM 33.0417 -96.7622 84° East 301 346 10,100  Level Fort Worth Center
09:02PM 33.0531 -96.6469 83° East 355 409 10,200 1,161 Climbing Fort Worth Center
09:03PM 33.0644 -96.5178 84° East 358 412 12,500 1,439 Climbing Fort Worth Center
09:05PM 33.0831 -96.3147 84° East 363 418 14,300 988 Climbing Memphis Center
09:06PM 33.1125 -96.1989 73° East 363 418 15,300 984 Climbing Memphis Center
09:07PM 33.1508 -96.0836 68° East 364 419 16,300 1,087 Climbing Memphis Center
09:08PM 33.2033 -95.9189 69° East 376 433 17,800 1,036 Climbing Fort Worth Center
09:09PM 33.2417 -95.7903 70° East 381 438 18,700 919 Climbing Fort Worth Center
09:10PM 33.2756 -95.6697 71° East 383 441 19,700 976 Climbing Fort Worth Center
09:11PM 33.3092 -95.5569 70° East 389 448 20,700 976 Climbing Fort Worth Center
09:12PM 33.3444 -95.4306 71° East 392 451 21,700 968 Climbing Fort Worth Center
09:13PM 33.3794 -95.3083 71° East 395 455 22,700 1,024 Climbing Fort Worth Center
09:14PM 33.4164 -95.1828 71° East 396 456 23,800 1,122 Climbing Fort Worth Center
09:15PM 33.4706 -95.0408 65° Northeast 395 455 25,000 1,065 Climbing Fort Worth Center
09:16PM 33.5211 -94.9286 62° Northeast 388 447 26,000 976 Climbing Fort Worth Center
09:17PM 33.5703 -94.8142 63° Northeast 386 444 27,000 976 Climbing Fort Worth Center
09:18PM 33.6194 -94.7031 62° Northeast 382 440 28,000 968 Climbing Fort Worth Center
09:19PM 33.6672 -94.5942 62° Northeast 377 434 29,000 484 Climbing Fort Worth Center
09:20PM 33.7161 -94.4814 62° Northeast 375 432 29,000  Level Fort Worth Center
09:21PM 33.7683 -94.3614 62° Northeast 394 453 29,000 439 Level Fort Worth Center
09:22PM 33.8197 -94.2403 63° Northeast 404 465 29,900 968 Climbing Fort Worth Center
09:23PM 33.8789 -94.1019 63° Northeast 391 450 31,000 537 Climbing Fort Worth Center
09:24PM 33.9297 -93.9828 63° Northeast 393 452 31,000  Level Fort Worth Center
09:25PM 33.9869 -93.8653 60° Northeast 404 465 31,000  Level Fort Worth Center
09:26PM 34.0561 -93.7669 50° Northeast 389 448 31,000  Level Fort Worth Center
09:27PM 34.1233 -93.6697 50° Northeast 381 438 31,000  Level Fort Worth Center
09:28PM 34.1633 -93.6125 50° Northeast 380 437 31,000  Level Memphis Center
09:29PM 34.2300 -93.5175 50° Northeast 375 432 31,000  Level Memphis Center
09:30PM 34.2967 -93.4217 50° Northeast 375 432 31,000  Level Memphis Center
09:31PM 34.3722 -93.3122 50° Northeast 375 432 31,000  Level Memphis Center
09:32PM 34.4389 -93.2164 50° Northeast 374 430 31,000  Level Memphis Center
09:33PM 34.5047 -93.1214 50° Northeast 374 430 31,000  Level Memphis Center
09:34PM 34.5703 -93.0236 51° Northeast 373 429 31,000  Level Memphis Center
09:35PM 34.6350 -92.9314 50° Northeast 368 423 31,000  Level Memphis Center
09:36PM 34.6997 -92.8369 50° Northeast 365 420 31,000  Level Memphis Center
09:37PM 34.7644 -92.7433 50° Northeast 365 420 31,000  Level Memphis Center
09:38PM 34.8422 -92.6289 50° Northeast 365 420 31,000  Level Memphis Center
09:39PM 34.9067 -92.5342 50° Northeast 366 421 31,000  Level Memphis Center
09:40PM 34.9717 -92.4389 50° Northeast 366 421 31,000  Level Memphis Center
09:41PM 35.0364 -92.3428 51° Northeast 366 421 31,000  Level Memphis Center
09:42PM 35.1008 -92.2442 51° Northeast 368 423 31,000  Level Memphis Center
09:43PM 35.1686 -92.1458 50° Northeast 373 429 31,000  Level Memphis Center
09:44PM 35.2342 -92.0444 52° Northeast 378 435 31,000  Level Memphis Center
09:45PM 35.3044 -91.9442 49° Northeast 382 440 31,000  Level Memphis Center
09:46PM 35.3861 -91.8214 51° Northeast 388 447 31,000  Level Memphis Center
09:47PM 35.4536 -91.7186 51° Northeast 388 447 31,000  Level Memphis Center
09:48PM 35.5214 -91.6161 51° Northeast 388 447 31,000  Level Memphis Center
09:50PM 35.5878 -91.5147 51° Northeast 388 447 31,000  Level Memphis Center
09:51PM 35.6617 -91.4039 51° Northeast 387 445 31,000  Level Memphis Center
09:52PM 35.7294 -91.3000 51° Northeast 387 445 31,000  Level Memphis Center
09:53PM 35.7958 -91.1972 51° Northeast 387 445 31,000  Level Memphis Center
09:54PM 35.8628 -91.0936 51° Northeast 386 444 31,000  Level Memphis Center
09:55PM 35.9306 -90.9897 51° Northeast 387 445 31,000  Level Memphis Center
09:56PM 35.9983 -90.8861 51° Northeast 387 445 31,000  Level Memphis Center
09:57PM 36.0656 -90.7814 52° Northeast 387 445 31,000  Level Memphis Center
09:58PM 36.1331 -90.6758 52° Northeast 388 447 31,000  Level Memphis Center
09:59PM 36.2050 -90.5736 49° Northeast 391 450 31,000  Level Memphis Center
10:00PM 36.2878 -90.4878 40° Northeast 389 448 31,000  Level Memphis Center
10:01PM 36.3694 -90.3989 41° Northeast 389 448 31,000  Level Memphis Center
10:02PM 36.4497 -90.3086 42° Northeast 389 448 31,000  Level Memphis Center
10:03PM 36.5486 -90.2011 41° Northeast 389 448 31,000  Level Memphis Center
10:04PM 36.6306 -90.1092 42° Northeast 390 449 31,000  Level Memphis Center
10:05PM 36.7144 -90.0181 41° Northeast 393 452 31,000  Level Memphis Center
10:06PM 36.7969 -89.9267 42° Northeast 394 453 31,000  Level Memphis Center
10:07PM 36.8803 -89.8331 42° Northeast 395 455 31,000  Level Memphis Center
10:08PM 36.9639 -89.7406 41° Northeast 396 456 31,000  Level Memphis Center
10:09PM 37.0475 -89.6453 42° Northeast 400 460 31,000  Level Memphis Center
10:10PM 37.1311 -89.5511 42° Northeast 402 463 31,000  Level Memphis Center
10:11PM 37.2153 -89.4572 42° Northeast 402 463 31,000  Level Memphis Center
10:12PM 37.3000 -89.3611 42° Northeast 403 464 31,000  Level Memphis Center
10:13PM 37.3839 -89.2656 42° Northeast 405 466 31,000  Level Memphis Center
10:14PM 37.4694 -89.1694 42° Northeast 405 466 31,000  Level Kansas City Center
10:15PM 37.5536 -89.0714 43° Northeast 409 471 31,000  Level Kansas City Center
10:16PM 37.6383 -88.9753 42° Northeast 409 471 31,000  Level Kansas City Center
10:17PM 37.7233 -88.8775 42° Northeast 410 472 31,000  Level Kansas City Center
10:18PM 37.8206 -88.7647 42° Northeast 410 472 31,000  Level Kansas City Center
10:19PM 37.9056 -88.6653 43° Northeast 411 473 31,000  Level Kansas City Center
10:20PM 37.9925 -88.5661 42° Northeast 413 475 31,000  Level Kansas City Center
10:21PM 38.0786 -88.4664 42° Northeast 414 476 31,000  Level Kansas City Center
10:22PM 38.1636 -88.3653 43° Northeast 414 476 31,000  Level Kansas City Center
10:23PM 38.2500 -88.2653 42° Northeast 415 478 31,000  Level Kansas City Center
10:24PM 38.3350 -88.1642 43° Northeast 415 478 31,000  Level Kansas City Center
10:25PM 38.4044 -88.0828 43° Northeast 416 479 31,000  Level Indianapolis Center
10:26PM 38.4894 -87.9808 43° Northeast 416 479 31,000  Level Indianapolis Center
10:27PM 38.5756 -87.8800 42° Northeast 417 480 31,000  Level Indianapolis Center
10:28PM 38.6622 -87.7761 43° Northeast 417 480 31,000  Level Indianapolis Center
10:29PM 38.7469 -87.6739 43° Northeast 417 480 31,000  Level Indianapolis Center
10:30PM 38.8339 -87.5706 43° Northeast 418 481 31,000  Level Indianapolis Center
10:31PM 38.9203 -87.4656 43° Northeast 419 482 31,000  Level Indianapolis Center
10:32PM 39.0064 -87.3603 44° Northeast 420 483 31,000  Level Indianapolis Center
10:33PM 39.0936 -87.2569 43° Northeast 421 484 31,000  Level Indianapolis Center
10:34PM 39.1731 -87.1586 44° Northeast 421 484 31,000  Level Indianapolis Center
10:35PM 39.2767 -87.0325 43° Northeast 423 487 31,000  Level Indianapolis Center
10:36PM 39.3622 -86.9272 44° Northeast 423 487 31,000 -295 Level Indianapolis Center
10:37PM 39.4472 -86.8219 44° Northeast 424 488 30,400 -885 Descending Indianapolis Center
10:38PM 39.5314 -86.7192 43° Northeast 419 482 29,200 -1,279 Descending Indianapolis Center
10:39PM 39.6211 -86.6089 43° Northeast 437 503 27,800 -1,426 Descending Indianapolis Center
10:40PM 39.7111 -86.4958 44° Northeast 445 512 26,300 -1,475 Descending Indianapolis Center
10:41PM 39.8033 -86.3797 44° Northeast 446 513 24,800 -1,475 Descending Indianapolis Center
10:42PM 39.9061 -86.2750 38° Northeast 451 519 23,300 -885 Descending Indianapolis Center
10:43PM 40.0075 -86.1758 37° Northeast 454 522 23,000 -197 Descending Indianapolis Center
10:44PM 40.1072 -86.0772 37° Northeast 453 521 22,900 -641 Descending Indianapolis Center
10:45PM 40.1756 -86.0086 37° Northeast 447 514 21,900 -1,922 Descending Chicago Center
10:46PM 40.2836 -85.9011 37° Northeast 441 507 19,600 -2,410 Descending Chicago Center
10:47PM 40.3756 -85.8097 37° Northeast 419 482 17,000 -2,439 Descending Chicago Center
10:48PM 40.4611 -85.7222 38° Northeast 397 457 14,600 -2,390 Descending Chicago Center
10:49PM 40.5428 -85.6400 37° Northeast 377 434 12,100 -1,770 Descending Chicago Center
10:50PM 40.6219 -85.5600 37° Northeast 361 415 11,000 -738 Descending Chicago Center
10:51PM 40.7122 -85.4939 29° Northeast 348 400 10,600 -1,033 Descending Chicago Center
10:52PM 40.7758 -85.4414 32° Northeast 273 314 8,900 -2,557 Descending Chicago Center
10:53PM 40.8281 -85.3800 42° Northeast 254 292 5,400 -2,683 Descending Chicago Center
10:54PM 40.8697 -85.3264 44° Northeast 232 267 3,400 -1,463 Descending Chicago Center
10:55PM 40.9075 -85.2789 44° Northeast 210 242 2,400 -934 Descending Chicago Center
10:56PM 40.9381 -85.2397 44° Northeast 183 211 1,500 -885 Descending Chicago Center